Time;durP1;ratioP1;P1;durP2;ratioP2;P2;SDS_P1;SDS_P2;PMS_P1;PMS_P2;Temp;Humidity;BMP_temperature;BMP_pressure;BME280_temperature;BME280_humidity;BME280_pressure;Samples;Min_cycle;Max_cycle;Signal;HPM_P1;HPM_P2
2023/05/22 00:01:50;;;;;;;10.93;2.30;;;38.00;28.60;;;;;;4909962;29;20043;-60
2023/05/22 00:04:20;;;;;;;8.63;1.63;;;38.00;29.00;;;;;;4908521;29;20029;-63
2023/05/22 00:06:47;;;;;;;7.70;1.80;;;37.90;28.40;;;;;;4907262;29;20032;-64
2023/05/22 00:09:14;;;;;;;6.65;1.67;;;37.90;28.30;;;;;;4909051;29;20063;-64
2023/05/22 00:11:41;;;;;;;7.15;2.05;;;37.90;28.30;;;;;;4910507;29;20064;-65
2023/05/22 00:14:08;;;;;;;10.55;2.05;;;37.90;28.60;;;;;;4909191;29;20026;-63
2023/05/22 00:16:34;;;;;;;10.13;2.55;;;37.90;28.90;;;;;;4906667;29;20432;-64
2023/05/22 00:19:00;;;;;;;6.70;2.30;;;37.80;28.80;;;;;;4899813;29;20080;-62
2023/05/22 00:21:27;;;;;;;8.40;2.00;;;37.70;29.80;;;;;;4907479;29;20038;-63
2023/05/22 00:23:53;;;;;;;7.72;2.13;;;37.70;31.00;;;;;;4907365;29;20068;-63
2023/05/22 00:26:22;;;;;;;9.07;2.10;;;37.50;29.50;;;;;;4903999;29;20083;-63
2023/05/22 00:28:48;;;;;;;17.85;2.38;;;37.50;28.70;;;;;;4907507;29;20036;-64
2023/05/22 00:31:15;;;;;;;7.97;2.20;;;37.40;28.80;;;;;;4908123;29;20058;-64
2023/05/22 00:33:41;;;;;;;6.47;2.00;;;37.30;29.20;;;;;;4907755;29;20087;-64
2023/05/22 00:36:08;;;;;;;6.05;1.92;;;37.20;28.70;;;;;;4911028;29;20051;-63
2023/05/22 00:38:36;;;;;;;10.63;9.30;;;37.20;28.80;;;;;;4908616;29;20060;-64
2023/05/22 00:41:05;;;;;;;15.55;10.95;;;37.10;28.80;;;;;;4908262;29;20049;-64
2023/05/22 00:43:32;;;;;;;16.00;10.77;;;37.10;28.90;;;;;;4905251;29;20546;-64
2023/05/22 00:45:59;;;;;;;12.90;11.75;;;36.90;29.10;;;;;;4910193;29;20075;-63
2023/05/22 00:48:25;;;;;;;17.90;8.88;;;36.90;29.40;;;;;;4911995;29;20025;-62
2023/05/22 00:50:54;;;;;;;5.25;1.80;;;36.90;29.20;;;;;;4913826;29;20127;-65
2023/05/22 00:53:22;;;;;;;15.80;2.25;;;36.90;29.40;;;;;;4911984;29;20031;-62
2023/05/22 00:55:50;;;;;;;9.32;2.30;;;36.80;29.40;;;;;;4912336;29;20024;-63
2023/05/22 00:58:20;;;;;;;17.40;2.10;;;36.70;29.50;;;;;;4907026;29;20032;-63
2023/05/22 01:00:47;;;;;;;10.60;2.40;;;36.70;29.30;;;;;;4911174;29;20943;-63
2023/05/22 01:03:14;;;;;;;8.15;2.50;;;36.70;29.20;;;;;;4910637;29;20092;-62
2023/05/22 01:05:41;;;;;;;15.88;2.28;;;36.70;29.40;;;;;;4909168;29;20035;-63
2023/05/22 01:08:08;;;;;;;8.40;2.58;;;36.60;29.20;;;;;;4911426;29;20035;-63
2023/05/22 01:10:36;;;;;;;8.15;1.77;;;36.50;29.00;;;;;;4908630;29;20032;-63
2023/05/22 01:13:25;;;;;;;7.75;2.33;;;36.50;28.90;;;;;;4907647;29;20554;-62
2023/05/22 01:16:05;;;;;;;19.52;2.13;;;36.40;29.20;;;;;;4908651;29;20382;-64
2023/05/22 01:18:55;;;;;;;9.10;1.90;;;36.40;29.10;;;;;;4907083;29;20036;-61
2023/05/22 01:21:36;;;;;;;6.72;2.28;;;36.40;29.10;;;;;;4905488;29;20056;-65
2023/05/22 01:24:42;;;;;;;7.65;2.30;;;36.40;29.10;;;;;;4909836;29;20044;-66
2023/05/22 01:27:33;;;;;;;14.85;2.45;;;36.40;28.90;;;;;;4914626;29;20032;-64
2023/05/22 01:30:26;;;;;;;16.02;1.98;;;36.30;28.90;;;;;;4908970;29;20127;-66
2023/05/22 01:32:56;;;;;;;12.05;2.17;;;36.30;29.00;;;;;;4910583;29;20377;-65
2023/05/22 01:35:24;;;;;;;5.30;2.08;;;36.20;29.40;;;;;;4908873;29;20496;-66
2023/05/22 01:37:51;;;;;;;8.35;2.17;;;36.10;29.20;;;;;;4909929;29;20108;-66
2023/05/22 01:40:18;;;;;;;9.77;2.60;;;36.10;29.50;;;;;;4910558;29;20051;-64
2023/05/22 01:42:45;;;;;;;13.70;1.80;;;36.30;29.40;;;;;;4910913;29;20103;-65
2023/05/22 01:45:13;;;;;;;22.65;2.75;;;36.40;28.90;;;;;;4912301;29;20063;-66
2023/05/22 01:47:40;;;;;;;12.85;2.30;;;36.40;29.40;;;;;;4903200;29;20103;-66
2023/05/22 01:50:07;;;;;;;9.20;2.08;;;36.40;29.70;;;;;;4910360;29;20028;-65
2023/05/22 01:52:38;;;;;;;14.02;2.10;;;36.30;30.00;;;;;;4911489;29;20387;-64
2023/05/22 01:55:20;;;;;;;10.07;1.77;;;36.40;30.00;;;;;;4912821;29;20024;-66
2023/05/22 01:58:02;;;;;;;13.65;2.60;;;36.40;30.10;;;;;;4909716;29;20029;-67
2023/05/22 02:00:32;;;;;;;14.80;2.42;;;36.30;30.60;;;;;;4914434;29;20031;-66
2023/05/22 02:03:06;;;;;;;10.18;2.55;;;36.00;31.10;;;;;;4910659;29;20021;-65
2023/05/22 02:05:37;;;;;;;15.18;2.58;;;35.80;31.50;;;;;;4909985;29;20060;-66
2023/05/22 02:08:04;;;;;;;28.35;3.67;;;35.60;31.80;;;;;;4907648;29;20387;-65
2023/05/22 02:10:32;;;;;;;22.85;3.13;;;35.30;32.30;;;;;;4907154;29;20115;-65
2023/05/22 02:12:59;;;;;;;23.38;3.20;;;35.10;32.40;;;;;;4909940;29;20060;-66
2023/05/22 02:15:26;;;;;;;18.70;2.60;;;35.00;32.90;;;;;;4909376;29;20032;-65
2023/05/22 02:17:52;;;;;;;21.17;2.80;;;34.90;33.10;;;;;;4909961;29;20039;-63
2023/05/22 02:20:19;;;;;;;14.18;2.50;;;34.70;33.00;;;;;;4902873;29;20029;-63
2023/05/22 02:22:47;;;;;;;22.08;2.70;;;34.50;33.40;;;;;;4905100;29;20055;-63
2023/05/22 02:25:15;;;;;;;15.38;2.40;;;34.40;33.60;;;;;;4908701;29;20045;-63
2023/05/22 02:27:46;;;;;;;21.13;2.88;;;34.20;34.10;;;;;;4909569;29;20388;-64
2023/05/22 02:30:14;;;;;;;12.75;2.55;;;34.10;35.20;;;;;;4909533;29;20035;-65
2023/05/22 02:32:41;;;;;;;11.50;2.78;;;33.90;34.90;;;;;;4908480;29;20112;-65
2023/05/22 02:35:08;;;;;;;14.25;2.30;;;33.80;35.10;;;;;;4909388;29;20024;-62
2023/05/22 02:37:35;;;;;;;14.70;2.80;;;33.70;35.10;;;;;;4910615;29;20020;-64
2023/05/22 02:40:05;;;;;;;24.52;3.67;;;33.60;35.30;;;;;;4909462;29;20020;-64
2023/05/22 02:42:31;;;;;;;16.73;2.72;;;33.50;35.50;;;;;;4906431;29;20039;-62
2023/05/22 02:44:57;;;;;;;16.58;3.20;;;33.40;35.80;;;;;;4908488;29;20024;-63
2023/05/22 02:47:24;;;;;;;20.17;3.75;;;33.30;36.60;;;;;;4907389;29;20126;-65
2023/05/22 02:49:50;;;;;;;16.33;2.80;;;33.30;37.20;;;;;;4906699;29;20046;-65
2023/05/22 02:52:17;;;;;;;15.60;3.75;;;33.20;37.90;;;;;;4904114;29;20537;-62
2023/05/22 02:54:43;;;;;;;11.45;3.58;;;33.00;38.30;;;;;;4907052;29;20039;-64
2023/05/22 02:57:09;;;;;;;18.02;4.22;;;32.90;38.90;;;;;;4906433;29;20039;-64
2023/05/22 02:59:36;;;;;;;25.38;4.05;;;32.80;39.60;;;;;;4906919;29;20036;-64
2023/05/22 03:02:04;;;;;;;16.83;3.90;;;32.70;40.00;;;;;;4909246;29;20529;-64
2023/05/22 03:04:31;;;;;;;31.17;5.82;;;32.70;40.30;;;;;;4907850;29;20082;-63
2023/05/22 03:06:58;;;;;;;21.23;4.07;;;32.70;40.70;;;;;;4907708;29;20035;-63
2023/05/22 03:09:24;;;;;;;25.05;3.88;;;32.60;41.20;;;;;;4908820;29;20067;-64
2023/05/22 03:11:51;;;;;;;19.13;4.45;;;32.50;41.60;;;;;;4909286;29;20134;-65
2023/05/22 03:14:17;;;;;;;22.58;3.30;;;32.50;42.00;;;;;;4908793;29;20495;-64
2023/05/22 03:16:44;;;;;;;16.63;3.35;;;32.40;41.80;;;;;;4910065;29;20038;-63
2023/05/22 03:19:11;;;;;;;16.13;3.35;;;32.30;41.90;;;;;;4908668;29;20050;-64
2023/05/22 03:21:39;;;;;;;18.02;3.08;;;32.30;42.00;;;;;;4903901;29;20121;-66
2023/05/22 03:24:06;;;;;;;29.10;3.65;;;32.20;42.30;;;;;;4900213;29;20095;-65
2023/05/22 03:26:33;;;;;;;23.63;3.80;;;32.10;42.50;;;;;;4908267;29;20068;-65
2023/05/22 03:28:59;;;;;;;27.70;3.92;;;32.00;42.50;;;;;;4908593;29;20109;-64
2023/05/22 03:31:28;;;;;;;18.98;3.67;;;31.90;42.70;;;;;;4907247;29;20150;-66
2023/05/22 03:33:54;;;;;;;20.35;4.32;;;31.90;43.00;;;;;;4909318;29;20038;-66
2023/05/22 03:36:21;;;;;;;27.35;4.47;;;31.80;43.00;;;;;;4911163;29;20601;-65
2023/05/22 03:38:48;;;;;;;20.83;4.68;;;31.80;43.90;;;;;;4906823;29;20041;-65
2023/05/22 03:41:15;;;;;;;27.10;5.55;;;31.80;43.40;;;;;;4908953;29;20047;-66
2023/05/22 03:43:41;;;;;;;15.95;4.75;;;31.70;43.40;;;;;;4908414;29;20044;-63
2023/05/22 03:46:09;;;;;;;20.25;5.88;;;31.60;43.70;;;;;;4907267;29;20054;-65
2023/05/22 03:48:35;;;;;;;19.38;5.15;;;31.50;44.40;;;;;;4906654;29;20103;-64
2023/05/22 03:51:02;;;;;;;24.42;5.32;;;31.50;44.00;;;;;;4908520;29;20060;-65
2023/05/22 03:53:29;;;;;;;19.60;5.57;;;31.40;44.00;;;;;;4906720;29;20041;-65
2023/05/22 03:55:58;;;;;;;23.23;6.72;;;31.30;43.60;;;;;;4909550;29;20043;-65
2023/05/22 03:58:25;;;;;;;26.90;6.80;;;31.20;43.90;;;;;;4908441;29;20055;-65
2023/05/22 04:00:54;;;;;;;28.27;6.75;;;31.10;43.90;;;;;;4908352;29;20039;-65
2023/05/22 04:03:21;;;;;;;25.30;7.13;;;31.10;43.90;;;;;;4905832;29;20090;-63
2023/05/22 04:05:47;;;;;;;20.40;5.88;;;31.00;43.70;;;;;;4902560;29;20106;-64
2023/05/22 04:08:14;;;;;;;22.05;5.55;;;31.00;43.70;;;;;;4903073;29;20120;-64
2023/05/22 04:10:41;;;;;;;31.67;6.13;;;31.00;43.70;;;;;;4902216;29;20413;-63
2023/05/22 04:13:07;;;;;;;29.50;5.97;;;30.90;43.50;;;;;;4901519;29;20056;-63
2023/05/22 04:15:35;;;;;;;27.35;6.00;;;30.80;43.40;;;;;;4905264;29;20063;-63
2023/05/22 04:18:01;;;;;;;17.02;5.57;;;30.80;43.10;;;;;;4904182;29;20068;-62
2023/05/22 04:20:27;;;;;;;33.33;6.70;;;30.80;43.10;;;;;;4903944;29;20487;-61
2023/05/22 04:22:54;;;;;;;25.02;5.75;;;30.70;43.20;;;;;;4903743;29;20069;-63
2023/05/22 04:25:21;;;;;;;28.05;6.00;;;30.60;42.90;;;;;;4907536;29;20642;-63
2023/05/22 04:27:47;;;;;;;26.02;6.13;;;30.60;42.80;;;;;;4905809;29;20490;-65
2023/05/22 04:30:15;;;;;;;25.50;5.85;;;30.50;42.90;;;;;;4913537;29;20063;-64
2023/05/22 04:32:42;;;;;;;24.17;4.40;;;30.40;43.20;;;;;;4912091;29;20074;-63
2023/05/22 04:35:11;;;;;;;17.85;4.25;;;30.40;43.10;;;;;;4912630;29;20059;-63
2023/05/22 04:37:39;;;;;;;22.10;4.07;;;30.30;42.70;;;;;;4913975;29;20423;-64
2023/05/22 04:40:08;;;;;;;16.63;4.05;;;30.30;42.30;;;;;;4908299;29;20066;-63
2023/05/22 04:42:37;;;;;;;22.50;3.78;;;30.20;42.10;;;;;;4908459;29;20085;-63
2023/05/22 04:45:07;;;;;;;21.90;3.92;;;30.20;42.00;;;;;;4907413;29;20069;-63
2023/05/22 04:47:36;;;;;;;27.58;4.00;;;30.20;41.90;;;;;;4907384;29;20079;-63
2023/05/22 04:50:04;;;;;;;18.33;4.18;;;30.20;41.40;;;;;;4909995;29;20079;-64
2023/05/22 04:52:30;;;;;;;24.65;5.03;;;30.10;41.20;;;;;;4910354;29;20168;-65
2023/05/22 04:54:56;;;;;;;19.08;3.88;;;30.10;41.40;;;;;;4910033;29;20550;-62
2023/05/22 04:57:26;;;;;;;25.80;4.57;;;30.00;41.50;;;;;;4911638;29;20070;-62
2023/05/22 04:59:53;;;;;;;25.73;5.38;;;30.00;41.70;;;;;;4912450;29;20123;-66
2023/05/22 05:02:19;;;;;;;23.33;5.30;;;29.90;41.30;;;;;;4909646;29;20483;-63
2023/05/22 05:04:46;;;;;;;26.80;5.80;;;29.90;41.60;;;;;;4911831;29;20071;-64
2023/05/22 05:07:16;;;;;;;25.50;5.68;;;29.90;41.60;;;;;;4911568;29;20122;-63
2023/05/22 05:09:42;;;;;;;26.58;5.63;;;30.00;41.60;;;;;;4911926;29;20156;-62
2023/05/22 05:12:09;;;;;;;30.90;5.75;;;29.90;41.30;;;;;;4912222;29;20421;-62
2023/05/22 05:14:35;;;;;;;26.67;6.40;;;29.90;41.10;;;;;;4911590;29;20121;-63
2023/05/22 05:17:02;;;;;;;22.00;6.22;;;29.80;40.80;;;;;;4909144;29;20060;-63
2023/05/22 05:19:28;;;;;;;22.40;6.03;;;29.80;40.70;;;;;;4911868;29;20077;-64
2023/05/22 05:21:54;;;;;;;32.08;5.97;;;29.70;40.50;;;;;;4910131;29;20530;-63
2023/05/22 05:24:21;;;;;;;28.48;6.20;;;29.60;40.40;;;;;;4901324;29;20489;-64
2023/05/22 05:26:48;;;;;;;29.38;7.03;;;29.60;40.50;;;;;;4911926;29;20495;-64
2023/05/22 05:29:15;;;;;;;21.83;6.72;;;29.60;40.50;;;;;;4909716;29;20075;-65
2023/05/22 05:31:41;;;;;;;55.33;9.25;;;29.50;40.70;;;;;;4911465;29;20156;-64
2023/05/22 05:34:08;;;;;;;32.58;8.00;;;29.50;40.80;;;;;;4914606;29;20069;-65
2023/05/22 05:36:34;;;;;;;25.88;7.97;;;29.50;41.20;;;;;;4911783;29;20543;-65
2023/05/22 05:39:01;;;;;;;27.63;8.82;;;29.40;41.30;;;;;;4908772;29;20122;-65
2023/05/22 05:41:27;;;;;;;26.58;9.00;;;29.40;41.40;;;;;;4908863;29;20083;-63
2023/05/22 05:43:56;;;;;;;29.30;9.63;;;29.40;41.50;;;;;;4910180;29;20097;-64
2023/05/22 05:46:22;;;;;;;31.30;8.68;;;29.40;41.60;;;;;;4909422;29;20517;-63
2023/05/22 05:48:49;;;;;;;28.17;8.80;;;29.40;41.80;;;;;;4912320;29;20132;-63
2023/05/22 05:51:15;;;;;;;26.40;8.18;;;29.40;41.70;;;;;;4912056;29;20143;-63
2023/05/22 05:53:41;;;;;;;27.73;8.57;;;29.30;41.50;;;;;;4912282;29;20591;-63
2023/05/22 05:56:08;;;;;;;32.17;8.80;;;29.30;41.40;;;;;;4912198;29;20160;-66
2023/05/22 05:58:35;;;;;;;31.17;10.48;;;29.30;41.60;;;;;;4906999;29;20065;-62
2023/05/22 06:01:01;;;;;;;29.50;8.13;;;29.20;41.70;;;;;;4912597;29;20453;-64
2023/05/22 06:03:28;;;;;;;27.13;8.10;;;29.10;41.90;;;;;;4913101;29;20064;-64
2023/05/22 06:05:56;;;;;;;27.27;8.25;;;29.20;41.80;;;;;;4910479;29;20586;-64
2023/05/22 06:08:22;;;;;;;28.50;8.68;;;29.00;41.70;;;;;;4910227;29;20321;-64
2023/05/22 06:10:49;;;;;;;21.80;7.38;;;29.00;41.60;;;;;;4908998;29;20061;-64
2023/05/22 06:13:15;;;;;;;19.08;7.40;;;29.00;40.90;;;;;;4908935;29;20067;-66
2023/05/22 06:15:41;;;;;;;25.33;7.70;;;29.00;40.90;;;;;;4906379;29;20214;-65
2023/05/22 06:18:08;;;;;;;22.23;6.88;;;29.10;41.10;;;;;;4908474;29;20077;-63
2023/05/22 06:20:35;;;;;;;20.75;6.50;;;29.00;41.30;;;;;;4909134;29;20162;-62
2023/05/22 06:23:01;;;;;;;24.70;6.95;;;29.00;41.50;;;;;;4911740;29;20556;-64
2023/05/22 06:25:28;;;;;;;30.00;6.50;;;28.90;42.60;;;;;;4902063;29;20114;-63
2023/05/22 06:27:55;;;;;;;21.08;5.57;;;28.90;42.70;;;;;;4908689;29;20601;-63
2023/05/22 06:30:21;;;;;;;20.25;5.07;;;28.90;41.70;;;;;;4913332;29;20409;-65
2023/05/22 06:32:48;;;;;;;15.95;4.22;;;28.80;41.30;;;;;;4909944;29;20588;-67
2023/05/22 06:35:15;;;;;;;14.45;4.97;;;28.80;41.80;;;;;;4910936;29;20098;-64
2023/05/22 06:37:41;;;;;;;17.33;5.07;;;28.80;41.60;;;;;;4908689;29;20480;-64
2023/05/22 06:40:09;;;;;;;17.35;5.00;;;28.60;41.60;;;;;;4910491;29;20151;-65
2023/05/22 06:42:35;;;;;;;21.25;6.72;;;28.60;41.40;;;;;;4909787;29;20081;-65
2023/05/22 06:45:01;;;;;;;19.63;6.28;;;28.60;40.40;;;;;;4908958;29;20074;-63
2023/05/22 06:47:28;;;;;;;33.25;7.30;;;28.60;40.30;;;;;;4909582;29;20547;-64
2023/05/22 06:49:54;;;;;;;21.70;6.85;;;28.60;40.30;;;;;;4909807;29;20075;-64
2023/05/22 06:52:21;;;;;;;22.48;5.28;;;28.60;40.40;;;;;;4908616;29;20088;-64
2023/05/22 06:54:48;;;;;;;26.30;6.05;;;28.50;41.40;;;;;;4909028;29;20117;-65
2023/05/22 06:57:14;;;;;;;15.00;5.72;;;28.50;42.10;;;;;;4903763;29;20085;-65
2023/05/22 06:59:41;;;;;;;18.15;5.30;;;28.50;42.70;;;;;;4910903;29;20074;-65
2023/05/22 07:02:07;;;;;;;20.75;5.68;;;28.50;43.30;;;;;;4908475;29;20128;-64
2023/05/22 07:04:33;;;;;;;17.58;5.68;;;28.30;44.10;;;;;;4909942;29;20137;-63
2023/05/22 07:07:00;;;;;;;28.15;8.13;;;28.30;44.80;;;;;;4908925;29;20087;-62
2023/05/22 07:09:27;;;;;;;29.73;9.57;;;28.20;45.80;;;;;;4903399;29;20088;-66
2023/05/22 07:11:53;;;;;;;30.85;9.85;;;28.20;46.90;;;;;;4908024;29;20095;-65
2023/05/22 07:14:19;;;;;;;21.65;8.65;;;28.30;47.40;;;;;;4906100;29;20068;-64
2023/05/22 07:16:46;;;;;;;27.50;9.82;;;28.20;47.60;;;;;;4908025;29;20496;-62
2023/05/22 07:19:12;;;;;;;24.13;8.52;;;28.10;48.20;;;;;;4904279;29;20070;-62
2023/05/22 07:21:39;;;;;;;22.75;9.25;;;28.10;48.60;;;;;;4907725;29;20073;-64
2023/05/22 07:24:08;;;;;;;22.10;8.85;;;27.90;49.10;;;;;;4907594;29;20125;-61
2023/05/22 07:26:37;;;;;;;27.88;8.93;;;27.90;49.60;;;;;;4901335;29;20090;-64
2023/05/22 07:29:04;;;;;;;31.85;8.50;;;27.80;50.00;;;;;;4907616;29;20103;-64
2023/05/22 07:31:32;;;;;;;21.50;8.80;;;27.80;50.80;;;;;;4908749;29;20203;-63
2023/05/22 07:33:59;;;;;;;31.88;9.65;;;27.90;51.10;;;;;;4911084;29;20081;-63
2023/05/22 07:36:25;;;;;;;36.30;12.50;;;27.90;51.50;;;;;;4909816;29;20133;-63
2023/05/22 07:38:52;;;;;;;42.50;12.60;;;27.80;51.70;;;;;;4908755;29;20173;-64
2023/05/22 07:41:18;;;;;;;36.47;10.93;;;27.80;52.00;;;;;;4908775;29;20440;-63
2023/05/22 07:43:45;;;;;;;37.80;10.38;;;27.60;52.40;;;;;;4911455;29;20076;-62
2023/05/22 07:46:11;;;;;;;24.95;6.90;;;27.50;53.60;;;;;;4905644;29;20162;-63
2023/05/22 07:48:37;;;;;;;21.52;6.45;;;27.40;54.80;;;;;;4905651;29;20078;-64
2023/05/22 07:51:04;;;;;;;19.30;6.07;;;27.40;55.10;;;;;;4902063;29;20085;-62
2023/05/22 07:53:30;;;;;;;21.90;5.10;;;27.40;55.40;;;;;;4904864;29;20138;-65
2023/05/22 07:55:57;;;;;;;22.42;5.57;;;27.30;55.90;;;;;;4907177;29;20101;-64
2023/05/22 07:58:23;;;;;;;22.63;4.80;;;27.20;56.60;;;;;;4905357;29;20096;-64
2023/05/22 08:00:49;;;;;;;28.90;4.75;;;27.20;57.20;;;;;;4911989;29;20065;-64
2023/05/22 08:03:16;;;;;;;25.55;5.30;;;27.20;57.30;;;;;;4908772;29;20071;-62
2023/05/22 08:05:42;;;;;;;13.48;4.10;;;27.10;57.50;;;;;;4908231;29;20182;-64
2023/05/22 08:08:11;;;;;;;18.33;4.05;;;27.00;58.20;;;;;;4906711;29;20071;-63
2023/05/22 08:10:38;;;;;;;15.77;3.63;;;27.00;58.90;;;;;;4908028;29;20079;-63
2023/05/22 08:13:07;;;;;;;14.32;3.55;;;26.90;59.40;;;;;;4906859;29;20165;-64
2023/05/22 08:15:34;;;;;;;16.25;3.55;;;26.90;60.00;;;;;;4907965;29;20069;-64
2023/05/22 08:18:00;;;;;;;18.48;3.55;;;26.80;60.70;;;;;;4908377;29;20079;-64
2023/05/22 08:20:27;;;;;;;17.58;5.45;;;26.70;61.70;;;;;;4906383;29;20086;-64
2023/05/22 08:22:53;;;;;;;14.25;4.55;;;26.60;62.40;;;;;;4910162;29;20505;-63
2023/05/22 08:25:20;;;;;;;18.35;4.70;;;26.60;63.60;;;;;;4908213;29;20150;-65
2023/05/22 08:27:46;;;;;;;20.65;5.75;;;26.60;63.90;;;;;;4901921;29;20091;-63
2023/05/22 08:30:12;;;;;;;21.17;6.32;;;26.60;63.70;;;;;;4904058;29;20543;-64
2023/05/22 08:32:39;;;;;;;16.77;6.55;;;26.60;63.80;;;;;;4905997;29;20082;-64
2023/05/22 08:35:06;;;;;;;22.20;6.28;;;26.60;63.90;;;;;;4906975;29;20088;-64
2023/05/22 08:37:33;;;;;;;36.42;11.35;;;26.60;64.10;;;;;;4910629;29;20082;-65
2023/05/22 08:39:59;;;;;;;34.00;11.85;;;26.50;64.60;;;;;;4905294;29;20078;-64
2023/05/22 08:42:25;;;;;;;23.92;10.02;;;26.50;64.90;;;;;;4908246;29;20143;-64
2023/05/22 08:44:54;;;;;;;26.70;8.30;;;26.40;67.30;;;;;;4906989;29;20099;-63
2023/05/22 08:47:22;;;;;;;24.13;7.85;;;26.30;66.60;;;;;;4907429;29;20071;-63
2023/05/22 08:49:53;;;;;;;31.60;8.88;;;26.20;67.70;;;;;;4907719;29;20085;-63
2023/05/22 08:52:25;;;;;;;29.52;8.90;;;26.20;67.70;;;;;;4906075;29;20542;-63
2023/05/22 08:54:55;;;;;;;21.98;8.30;;;26.30;68.80;;;;;;4907056;29;20105;-63
2023/05/22 08:57:23;;;;;;;20.67;6.47;;;26.20;69.60;;;;;;4906279;29;20079;-65
2023/05/22 08:59:50;;;;;;;15.80;5.20;;;26.00;69.50;;;;;;4906631;29;20126;-64
2023/05/22 09:02:17;;;;;;;18.83;4.38;;;25.90;70.10;;;;;;4906503;29;20118;-63
2023/05/22 09:04:43;;;;;;;12.60;4.05;;;25.90;70.90;;;;;;4906640;29;20549;-65
2023/05/22 09:07:10;;;;;;;12.85;3.30;;;25.80;73.00;;;;;;4907911;29;20545;-63
2023/05/22 09:09:37;;;;;;;13.65;3.63;;;25.70;73.30;;;;;;4911950;29;20082;-63
2023/05/22 09:12:10;;;;;;;17.63;4.45;;;25.70;74.30;;;;;;4911555;29;20905;-64
2023/05/22 09:14:39;;;;;;;21.83;4.88;;;25.70;74.90;;;;;;4909470;29;20083;-64
2023/05/22 09:17:07;;;;;;;23.00;5.15;;;25.60;75.20;;;;;;4910301;29;20584;-64
2023/05/22 09:19:33;;;;;;;14.10;3.90;;;25.70;75.50;;;;;;4910633;29;20142;-64
2023/05/22 09:22:04;;;;;;;18.98;3.70;;;25.60;76.30;;;;;;4911187;29;20102;-65
2023/05/22 09:24:33;;;;;;;18.15;4.07;;;25.40;78.30;;;;;;4908931;29;20112;-64
2023/05/22 09:27:03;;;;;;;17.80;3.95;;;25.30;78.50;;;;;;4910636;29;20095;-64
2023/05/22 09:29:30;;;;;;;19.80;4.10;;;25.20;79.00;;;;;;4913768;29;20601;-65
2023/05/22 09:31:59;;;;;;;15.23;3.78;;;25.30;79.60;;;;;;4910741;29;20578;-64
2023/05/22 09:34:29;;;;;;;21.60;4.00;;;25.40;79.70;;;;;;4909369;29;20498;-63
2023/05/22 09:37:02;;;;;;;18.50;3.75;;;25.40;80.10;;;;;;4914282;29;20068;-64
2023/05/22 09:39:40;;;;;;;21.17;4.00;;;25.50;80.40;;;;;;4910444;29;20087;-65
2023/05/22 09:42:11;;;;;;;14.27;3.22;;;25.50;80.60;;;;;;4908704;29;20083;-63
2023/05/22 09:44:38;;;;;;;15.98;3.80;;;25.40;80.80;;;;;;4909552;29;20100;-64
2023/05/22 09:47:09;;;;;;;15.05;3.83;;;25.40;81.10;;;;;;4901972;29;20076;-64
2023/05/22 09:49:42;;;;;;;19.17;4.32;;;25.50;81.40;;;;;;4909967;29;20080;-63
2023/05/22 09:52:11;;;;;;;12.60;4.15;;;25.40;82.00;;;;;;4908755;29;20182;-65
2023/05/22 09:54:49;;;;;;;16.77;3.53;;;25.10;83.50;;;;;;4908398;29;20127;-64
2023/05/22 09:57:18;;;;;;;17.60;4.07;;;24.90;85.50;;;;;;4908111;29;20075;-65
2023/05/22 09:59:53;;;;;;;13.55;3.95;;;25.00;87.10;;;;;;4913408;29;20119;-64
2023/05/22 10:02:26;;;;;;;16.33;3.75;;;24.90;88.60;;;;;;4908000;29;20186;-63
2023/05/22 10:04:53;;;;;;;11.55;4.10;;;24.90;89.10;;;;;;4909144;29;20083;-64
2023/05/22 10:07:28;;;;;;;18.02;5.10;;;24.90;90.00;;;;;;4909258;29;20098;-63
2023/05/22 10:10:02;;;;;;;18.90;5.15;;;24.90;90.60;;;;;;4910465;29;20075;-63
2023/05/22 10:12:32;;;;;;;22.00;4.95;;;24.90;91.00;;;;;;4907899;29;20082;-64
2023/05/22 10:15:01;;;;;;;17.40;4.53;;;24.90;91.40;;;;;;4909192;29;20128;-64
2023/05/22 10:17:28;;;;;;;16.33;4.68;;;24.80;91.60;;;;;;4908521;29;20083;-63
2023/05/22 10:19:56;;;;;;;18.70;5.10;;;24.70;92.60;;;;;;4907142;29;20145;-63
2023/05/22 10:22:25;;;;;;;18.55;4.47;;;24.80;93.00;;;;;;4911193;29;20497;-63
2023/05/22 10:24:53;;;;;;;17.20;4.10;;;24.80;93.20;;;;;;4910333;29;20144;-64
2023/05/22 10:27:19;;;;;;;14.50;3.95;;;24.70;93.70;;;;;;4908054;29;20090;-63
2023/05/22 10:30:27;;;;;;;18.92;3.90;;;24.70;94.30;;;;;;4912780;29;20084;-65
2023/05/22 10:32:59;;;;;;;16.80;4.55;;;24.60;94.70;;;;;;4906629;29;20446;-62
2023/05/22 10:35:58;;;;;;;16.02;4.85;;;24.70;95.10;;;;;;4906769;29;20131;-65
2023/05/22 10:38:55;;;;;;;17.45;5.70;;;24.70;95.40;;;;;;4908046;29;20083;-65
2023/05/22 10:41:22;;;;;;;19.52;8.20;;;24.70;95.60;;;;;;4909365;29;20079;-64
2023/05/22 10:43:50;;;;;;;21.95;8.52;;;24.70;95.90;;;;;;4908846;29;20150;-65
2023/05/22 10:46:16;;;;;;;36.50;15.48;;;24.60;96.40;;;;;;4907667;29;20571;-64
2023/05/22 10:48:47;;;;;;;19.02;8.27;;;24.60;96.30;;;;;;4910081;29;20079;-63
2023/05/22 10:51:21;;;;;;;28.02;8.85;;;24.60;96.60;;;;;;4910395;29;20090;-63
2023/05/22 10:54:06;;;;;;;38.83;8.27;;;24.60;96.80;;;;;;4910140;29;20091;-65
2023/05/22 10:56:34;;;;;;;17.35;5.03;;;24.40;97.20;;;;;;4910340;29;20430;-64
2023/05/22 10:59:06;;;;;;;16.27;4.93;;;24.30;97.40;;;;;;4906776;29;20083;-63
2023/05/22 11:01:36;;;;;;;16.60;4.68;;;24.40;97.80;;;;;;4909251;29;20072;-66
2023/05/22 11:04:11;;;;;;;16.25;4.53;;;24.40;97.70;;;;;;4906492;29;20083;-64
2023/05/22 11:06:40;;;;;;;16.58;4.63;;;24.30;97.90;;;;;;4907327;29;20506;-64
2023/05/22 11:09:54;;;;;;;19.88;5.15;;;24.20;97.70;;;;;;4906924;29;20083;-63
2023/05/22 11:12:24;;;;;;;10.40;3.88;;;24.10;97.60;;;;;;4886220;29;20100;-64
2023/05/22 11:14:57;;;;;;;16.27;4.65;;;24.00;98.10;;;;;;4887552;29;20172;-65
2023/05/22 11:17:27;;;;;;;12.50;4.63;;;24.00;97.90;;;;;;4886265;29;20548;-63
2023/05/22 11:20:00;;;;;;;13.93;4.55;;;24.00;97.50;;;;;;4886431;29;20167;-65
2023/05/22 11:22:31;;;;;;;16.95;4.65;;;23.80;97.30;;;;;;4886976;29;20119;-64
2023/05/22 11:24:58;;;;;;;14.80;4.25;;;23.70;97.50;;;;;;4887622;29;20835;-64
2023/05/22 11:27:25;;;;;;;17.27;4.45;;;23.80;97.20;;;;;;4886058;29;20160;-64
2023/05/22 11:29:52;;;;;;;12.98;4.20;;;23.60;97.10;;;;;;4889600;29;20102;-66
2023/05/22 11:32:21;;;;;;;14.15;4.38;;;23.60;97.00;;;;;;4888214;29;20091;-66
2023/05/22 11:34:49;;;;;;;12.10;3.80;;;23.60;96.60;;;;;;4885574;29;20107;-65
2023/05/22 11:37:18;;;;;;;15.45;3.92;;;23.70;96.50;;;;;;4886466;29;20068;-66
2023/05/22 11:40:03;;;;;;;8.98;3.42;;;23.50;96.30;;;;;;4886922;29;20602;-64
2023/05/22 11:42:30;;;;;;;13.32;3.92;;;23.50;96.80;;;;;;4886250;29;20119;-64
2023/05/22 11:44:56;;;;;;;10.30;3.60;;;23.50;97.00;;;;;;4889398;29;20088;-64
2023/05/22 11:47:24;;;;;;;13.73;4.25;;;23.60;97.00;;;;;;4890431;29;20448;-64
2023/05/22 11:49:53;;;;;;;18.55;3.95;;;23.60;97.00;;;;;;4906754;29;20087;-64
2023/05/22 11:52:19;;;;;;;12.15;3.80;;;23.70;97.20;;;;;;4907875;29;20096;-63
2023/05/22 11:54:46;;;;;;;13.05;3.83;;;23.60;97.50;;;;;;4907713;29;20164;-65
2023/05/22 11:57:14;;;;;;;18.40;4.00;;;23.60;97.60;;;;;;4907905;29;20097;-65
2023/05/22 11:59:45;;;;;;;15.57;4.43;;;23.50;97.30;;;;;;4907910;29;20082;-64
2023/05/22 12:02:13;;;;;;;19.10;3.97;;;23.60;97.20;;;;;;4906898;29;20072;-65
2023/05/22 12:04:40;;;;;;;16.85;3.58;;;23.60;97.20;;;;;;4908809;29;20072;-64
2023/05/22 12:07:07;;;;;;;14.25;4.32;;;23.60;97.20;;;;;;4908778;29;20083;-66
2023/05/22 12:09:33;;;;;;;13.70;3.88;;;23.60;97.00;;;;;;4907609;29;20071;-64
2023/05/22 12:12:00;;;;;;;20.45;4.68;;;23.50;97.30;;;;;;4908599;29;20087;-65
2023/05/22 12:14:27;;;;;;;13.73;3.60;;;23.50;97.30;;;;;;4907658;29;20167;-63
2023/05/22 12:16:55;;;;;;;14.07;4.47;;;23.50;97.50;;;;;;4905934;29;20142;-64
2023/05/22 12:19:24;;;;;;;20.23;4.65;;;23.50;97.60;;;;;;4905278;29;20527;-63
2023/05/22 12:21:51;;;;;;;20.27;4.38;;;23.50;97.70;;;;;;4906408;29;20106;-64
2023/05/22 12:24:22;;;;;;;15.35;3.78;;;23.40;97.60;;;;;;4908815;29;20566;-65
2023/05/22 12:26:55;;;;;;;16.30;3.97;;;23.30;97.70;;;;;;4911971;29;20091;-65
2023/05/22 12:29:22;;;;;;;20.33;4.40;;;23.40;97.80;;;;;;4907503;29;20506;-64
2023/05/22 12:31:49;;;;;;;22.58;4.70;;;23.40;97.90;;;;;;4907234;29;20088;-65
2023/05/22 12:34:17;;;;;;;15.70;4.97;;;23.40;98.10;;;;;;4907854;29;20547;-64
2023/05/22 12:36:45;;;;;;;15.63;4.50;;;23.30;98.30;;;;;;4907615;29;20067;-64
2023/05/22 12:39:17;;;;;;;13.60;4.40;;;23.40;98.40;;;;;;4905837;29;20076;-65
2023/05/22 12:41:44;;;;;;;19.70;4.82;;;23.50;98.60;;;;;;4907985;29;20198;-64
2023/05/22 12:44:11;;;;;;;18.55;4.47;;;23.40;98.50;;;;;;4910344;29;20106;-63
2023/05/22 12:46:38;;;;;;;20.30;5.65;;;23.50;98.50;;;;;;4910635;29;20434;-64